createdAt,value
2022-09-15T00:00:49.852Z,2.85
2022-09-15T00:03:20.391Z,3.00
2022-09-15T00:05:50.712Z,2.35
2022-09-15T00:08:20.857Z,2.58
2022-09-15T00:10:52.553Z,2.60
2022-09-15T00:13:25.765Z,2.35
2022-09-15T00:15:56.228Z,2.63
2022-09-15T00:18:26.420Z,2.53
2022-09-15T00:20:56.643Z,2.63
2022-09-15T00:23:26.863Z,2.58
2022-09-15T00:25:57.099Z,2.97
2022-09-15T00:28:29.875Z,2.97
2022-09-15T00:31:00.194Z,2.40
2022-09-15T00:33:30.473Z,2.83
2022-09-15T00:36:00.857Z,2.78
2022-09-15T00:38:31.149Z,2.47
2022-09-15T00:41:01.989Z,2.92
2022-09-15T00:43:47.299Z,2.78
2022-09-15T00:46:21.606Z,2.53
2022-09-15T00:48:56.877Z,2.33
2022-09-15T00:51:29.638Z,3.10
2022-09-15T00:54:00.015Z,2.40
2022-09-15T00:56:30.798Z,2.53
2022-09-15T00:59:02.067Z,2.42
2022-09-15T01:01:35.786Z,2.33
2022-09-15T01:04:06.345Z,2.63
2022-09-15T01:06:38.591Z,2.53
2022-09-15T01:09:10.960Z,3.55
2022-09-15T01:11:42.001Z,2.50
2022-09-15T01:14:12.600Z,2.70
2022-09-15T01:16:52.932Z,3.05
2022-09-15T01:19:36.486Z,2.33
2022-09-15T01:22:12.959Z,3.03
2022-09-15T01:24:48.502Z,2.33
2022-09-15T01:27:42.419Z,2.72
2022-09-15T01:30:20.128Z,3.20
2022-09-15T01:33:06.975Z,3.00
2022-09-15T01:35:45.422Z,3.20
2022-09-15T01:38:18.839Z,2.63
2022-09-15T01:40:52.468Z,2.53
2022-09-15T01:43:25.408Z,2.72
2022-09-15T01:45:58.270Z,2.80
2022-09-15T01:48:30.018Z,3.00
2022-09-15T01:51:01.708Z,3.17
2022-09-15T01:53:32.297Z,3.13
2022-09-15T01:56:05.217Z,2.95
2022-09-15T01:58:35.533Z,3.10
2022-09-15T02:01:15.114Z,2.70
2022-09-15T02:03:48.203Z,3.08
2022-09-15T02:06:25.236Z,2.90
2022-09-15T02:09:00.573Z,3.33
2022-09-15T02:11:30.829Z,3.22
2022-09-15T02:14:11.531Z,2.80
2022-09-15T02:16:49.258Z,2.60
2022-09-15T02:19:23.418Z,2.97
2022-09-15T02:21:59.722Z,2.78
2022-09-15T02:24:32.788Z,2.60
2022-09-15T02:27:04.895Z,2.67
2022-09-15T02:29:39.379Z,3.17
2022-09-15T02:32:12.962Z,3.17
2022-09-15T02:34:47.832Z,3.55
2022-09-15T02:37:18.492Z,3.33
2022-09-15T02:39:54.630Z,3.03
2022-09-15T02:42:27.934Z,3.22
2022-09-15T02:44:58.565Z,3.22
2022-09-15T02:47:32.106Z,3.92
2022-09-15T02:50:03.422Z,3.10
2022-09-15T02:52:33.669Z,3.70
2022-09-15T02:55:03.871Z,3.28
2022-09-15T02:57:34.110Z,3.30
2022-09-15T03:00:17.508Z,2.90
2022-09-15T03:02:52.875Z,3.33
2022-09-15T03:05:24.003Z,3.00
2022-09-15T03:07:55.119Z,2.90
2022-09-15T03:10:25.798Z,3.55
2022-09-15T03:12:57.385Z,3.38
2022-09-15T03:15:29.097Z,3.35
2022-09-15T03:18:02.058Z,3.30
2022-09-15T03:20:32.260Z,3.15
2022-09-15T03:23:03.471Z,3.78
2022-09-15T03:25:33.707Z,3.28
2022-09-15T03:28:03.895Z,3.05
2022-09-15T03:30:34.167Z,3.63
2022-09-15T03:33:06.988Z,3.78
2022-09-15T03:35:37.208Z,3.80
2022-09-15T03:38:07.507Z,3.63
2022-09-15T03:40:37.880Z,3.78
2022-09-15T03:43:08.344Z,4.30
2022-09-15T03:45:39.359Z,3.72
2022-09-15T03:48:12.216Z,3.85
2022-09-15T03:50:42.444Z,3.45
2022-09-15T03:53:12.643Z,3.85
2022-09-15T03:55:42.839Z,5.43
2022-09-15T03:58:13.016Z,4.53
2022-09-15T04:00:43.989Z,4.43
2022-09-15T04:03:17.219Z,4.40
2022-09-15T04:05:47.495Z,4.30
2022-09-15T04:08:17.652Z,4.70
2022-09-15T04:10:48.293Z,4.40
2022-09-15T04:13:18.456Z,4.45
2022-09-15T04:15:49.531Z,4.13
2022-09-15T04:18:22.374Z,4.20
2022-09-15T04:20:52.559Z,3.78
2022-09-15T04:23:23.010Z,3.95
2022-09-15T04:25:59.720Z,4.20
2022-09-15T04:28:30.220Z,4.10
2022-09-15T04:31:06.289Z,3.80
2022-09-15T04:33:39.678Z,3.67
2022-09-15T04:36:11.386Z,3.47
2022-09-15T04:38:42.189Z,3.33
2022-09-15T04:41:12.816Z,3.30
2022-09-15T04:43:43.409Z,3.00
2022-09-15T04:46:14.083Z,3.05
2022-09-15T04:48:48.146Z,2.78
2022-09-15T04:53:48.623Z,2.70
2022-09-15T04:56:20.167Z,2.97
2022-09-15T04:58:51.754Z,3.50
2022-09-15T05:01:24.181Z,2.80
2022-09-15T05:03:57.519Z,3.20
2022-09-15T05:06:28.579Z,3.40
2022-09-15T05:08:59.999Z,2.97
2022-09-15T05:11:31.097Z,3.90
2022-09-15T05:14:01.626Z,3.00
2022-09-15T05:16:32.666Z,3.70
2022-09-15T05:19:05.855Z,3.53
2022-09-15T05:21:40.602Z,3.90
2022-09-15T05:24:10.959Z,2.83
2022-09-15T05:26:41.677Z,2.70
2022-09-15T05:29:11.855Z,3.15
2022-09-15T05:31:42.186Z,3.22
2022-09-15T05:34:15.517Z,2.92
2022-09-15T05:36:45.682Z,3.28
2022-09-15T05:39:15.949Z,2.75
2022-09-15T05:41:46.181Z,3.17
2022-09-15T05:44:16.379Z,2.58
2022-09-15T05:46:46.614Z,2.78
2022-09-15T05:49:19.430Z,3.17
2022-09-15T05:51:49.619Z,3.15
2022-09-15T05:54:19.840Z,2.65
2022-09-15T05:56:50.058Z,3.30
2022-09-15T05:59:20.391Z,3.08
2022-09-15T06:01:50.644Z,3.10
2022-09-15T06:04:23.562Z,2.92
2022-09-15T06:06:53.767Z,4.00
2022-09-15T06:09:24.027Z,3.33
2022-09-15T06:11:54.299Z,3.25
2022-09-15T06:14:24.469Z,4.18
2022-09-15T06:16:54.669Z,3.63
2022-09-15T06:19:27.447Z,3.53
2022-09-15T06:21:57.656Z,3.35
2022-09-15T06:24:27.870Z,3.90
2022-09-15T06:26:58.121Z,4.07
2022-09-15T06:29:28.696Z,3.80
2022-09-15T06:32:02.757Z,3.78
2022-09-15T06:34:35.703Z,4.20
2022-09-15T06:37:05.889Z,3.58
2022-09-15T06:39:36.062Z,3.33
2022-09-15T06:42:06.411Z,3.65
2022-09-15T06:44:38.133Z,3.95
2022-09-15T06:47:08.442Z,4.70
2022-09-15T06:49:41.272Z,4.28
2022-09-15T06:52:11.464Z,4.60
2022-09-15T06:54:41.651Z,5.07
2022-09-15T06:57:11.845Z,4.60
2022-09-15T06:59:42.702Z,4.40
2022-09-15T07:02:13.077Z,4.75
2022-09-15T07:04:45.931Z,3.33
2022-09-15T07:07:16.152Z,1.55
2022-09-15T07:09:49.071Z,0.60
2022-09-15T07:12:19.539Z,0.20
2022-09-15T07:14:49.714Z,0.10
2022-09-15T07:17:19.983Z,0.10
2022-09-15T07:19:52.770Z,0.20
2022-09-15T07:22:22.998Z,0.20
2022-09-15T07:24:53.212Z,0.20
2022-09-15T07:27:26.849Z,0.10
2022-09-15T07:29:57.075Z,0.00
2022-09-15T07:32:27.311Z,0.10
2022-09-15T07:35:00.093Z,0.10
2022-09-15T07:37:30.273Z,0.05
2022-09-15T07:40:00.567Z,0.10
2022-09-15T07:42:34.742Z,0.08
2022-09-15T07:45:05.774Z,0.13
2022-09-15T07:47:36.001Z,0.10
2022-09-15T07:50:09.756Z,0.00
2022-09-15T07:52:39.942Z,0.20
2022-09-15T07:55:10.923Z,0.10
2022-09-15T07:57:41.122Z,0.10
2022-09-15T08:00:11.934Z,0.10
2022-09-15T08:02:45.001Z,0.03
2022-09-15T08:05:17.848Z,0.20
2022-09-15T08:07:48.142Z,0.30
2022-09-15T08:10:18.462Z,0.25
2022-09-15T08:12:49.161Z,0.30
2022-09-15T08:15:19.362Z,0.63
2022-09-15T08:17:49.605Z,1.02
2022-09-15T08:20:22.774Z,1.15
2022-09-15T08:22:52.990Z,1.17
2022-09-15T08:25:23.203Z,1.80
2022-09-15T08:27:53.834Z,1.45
2022-09-15T08:30:24.043Z,1.00
2022-09-15T08:32:54.458Z,0.80
2022-09-15T08:35:27.253Z,0.60
2022-09-15T08:37:57.815Z,0.47
2022-09-15T08:40:37.409Z,0.40
2022-09-15T08:43:09.760Z,0.30
2022-09-15T08:45:49.040Z,0.30
2022-09-15T08:48:21.007Z,0.10
2022-09-15T08:50:55.108Z,0.35
2022-09-15T08:53:28.109Z,0.00
2022-09-15T08:55:59.800Z,0.10
2022-09-15T08:58:32.767Z,0.10
2022-09-15T09:01:06.392Z,0.10
2022-09-15T09:03:53.043Z,0.10
2022-09-15T09:06:31.795Z,0.10
2022-09-15T09:09:22.658Z,0.20
2022-09-15T09:12:05.479Z,0.20
2022-09-15T09:14:38.985Z,0.20
2022-09-15T09:17:17.891Z,0.30
2022-09-15T09:19:55.564Z,0.20
2022-09-15T09:22:29.678Z,0.05
2022-09-15T09:25:11.675Z,0.20
2022-09-15T09:27:52.418Z,0.17
2022-09-15T09:30:29.196Z,0.10
2022-09-15T09:33:10.897Z,0.13
2022-09-15T09:35:46.216Z,0.22
2022-09-15T09:38:23.535Z,0.20
2022-09-15T09:40:57.496Z,0.20
2022-09-15T09:43:31.300Z,0.20
2022-09-15T09:46:02.708Z,0.20
2022-09-15T09:48:33.158Z,0.15
2022-09-15T09:51:03.422Z,1.58
2022-09-15T09:53:36.922Z,0.40
2022-09-15T09:56:20.674Z,0.60
2022-09-15T09:58:51.196Z,2.17
2022-09-15T10:01:22.077Z,0.47
2022-09-15T10:03:52.373Z,0.20
2022-09-15T10:06:23.499Z,0.38
2022-09-15T10:09:03.673Z,0.52
2022-09-15T10:11:42.839Z,0.20
2022-09-15T10:14:21.161Z,0.40
2022-09-15T10:17:00.807Z,0.20
2022-09-15T10:19:31.599Z,0.47
2022-09-15T10:22:02.891Z,0.38
2022-09-15T10:24:42.210Z,0.10
2022-09-15T10:27:22.216Z,0.10
2022-09-15T10:29:52.403Z,0.10
2022-09-15T10:32:27.744Z,0.20
2022-09-15T10:35:13.106Z,0.20
2022-09-15T10:38:01.212Z,0.35
2022-09-15T10:40:46.749Z,0.15
2022-09-15T10:43:28.891Z,0.20
2022-09-15T10:46:04.112Z,0.38
2022-09-15T10:48:43.588Z,0.35
2022-09-15T10:51:35.791Z,0.28
2022-09-15T10:54:17.437Z,0.50
2022-09-15T10:56:52.450Z,0.30
2022-09-15T10:59:34.907Z,0.50
2022-09-15T11:02:23.804Z,0.50
2022-09-15T11:05:01.885Z,0.60
2022-09-15T11:07:36.089Z,0.50
2022-09-15T11:10:09.988Z,0.75
2022-09-15T11:15:37.385Z,0.95
2022-09-15T11:18:15.901Z,1.23
2022-09-15T11:21:02.336Z,1.10
2022-09-15T11:23:35.417Z,1.25
2022-09-15T11:26:08.564Z,1.20
2022-09-15T11:28:41.551Z,1.20
2022-09-15T11:31:19.371Z,1.30
2022-09-15T11:33:55.512Z,1.40
2022-09-15T11:36:28.387Z,1.40
2022-09-15T11:39:01.972Z,1.60
2022-09-15T11:41:34.439Z,1.92
2022-09-15T11:44:16.781Z,1.73
2022-09-15T11:47:05.994Z,1.77
2022-09-15T11:49:42.480Z,1.70
2022-09-15T11:52:27.513Z,1.90
2022-09-15T11:55:00.856Z,1.27
2022-09-15T11:57:34.032Z,1.40
2022-09-15T12:00:06.147Z,1.42
2022-09-15T12:02:42.773Z,1.45
2022-09-15T12:05:17.894Z,1.63
2022-09-15T12:07:51.860Z,1.52
2022-09-15T12:12:55.841Z,1.15
2022-09-15T12:15:27.639Z,1.13
2022-09-15T12:18:27.319Z,1.55
2022-09-15T12:21:04.983Z,1.10
2022-09-15T12:23:37.012Z,1.63
2022-09-15T12:26:14.308Z,1.23
2022-09-15T12:28:55.142Z,1.33
2022-09-15T12:31:35.751Z,1.05
2022-09-15T12:34:08.597Z,1.70
2022-09-15T12:36:43.119Z,2.33
2022-09-15T12:39:25.484Z,1.40
2022-09-15T12:41:56.700Z,1.27
2022-09-15T12:44:29.120Z,1.45
2022-09-15T12:47:01.720Z,1.50
2022-09-15T12:49:33.550Z,1.88
2022-09-15T12:52:08.110Z,1.70
2022-09-15T12:54:39.935Z,1.77
2022-09-15T12:57:10.802Z,2.05
2022-09-15T12:59:42.039Z,2.67
2022-09-15T13:02:36.158Z,2.30
2022-09-15T13:05:06.694Z,1.80
2022-09-15T13:07:56.376Z,1.58
2022-09-15T13:10:45.267Z,1.90
2022-09-15T13:13:19.109Z,2.42
2022-09-15T13:15:51.564Z,1.85
2022-09-15T13:18:22.303Z,1.70
2022-09-15T13:20:54.503Z,2.10
2022-09-15T13:23:29.864Z,1.67
2022-09-15T13:26:01.307Z,1.80
2022-09-15T13:28:31.853Z,1.95
2022-09-15T13:31:08.481Z,1.70
2022-09-15T13:40:02.432Z,1.80
2022-09-15T13:42:40.195Z,1.55
2022-09-15T13:45:22.693Z,1.52
2022-09-15T13:47:58.333Z,1.58
2022-09-15T13:50:29.616Z,1.05
2022-09-15T13:53:05.461Z,1.45
2022-09-15T13:55:39.456Z,0.90
2022-09-15T14:01:06.805Z,1.20
2022-09-15T14:03:39.569Z,1.23
2022-09-15T14:06:19.698Z,0.70
2022-09-15T14:08:52.045Z,0.73
2022-09-15T14:11:30.836Z,1.08
2022-09-15T14:14:03.057Z,1.00
2022-09-15T14:16:37.812Z,0.90
2022-09-15T14:19:23.936Z,1.17
2022-09-15T14:21:58.347Z,0.82
2022-09-15T14:24:30.666Z,0.80
2022-09-15T14:27:11.789Z,0.80
2022-09-15T14:29:43.513Z,0.70
2022-09-15T14:32:16.455Z,0.95
2022-09-15T14:37:37.610Z,0.73
2022-09-15T14:40:21.031Z,0.70
2022-09-15T14:42:54.000Z,0.52
2022-09-15T14:48:18.878Z,0.95
2022-09-15T14:50:56.339Z,0.47
2022-09-15T14:53:27.937Z,0.98
2022-09-15T14:56:07.047Z,0.88
2022-09-15T14:58:45.533Z,0.65
2022-09-15T15:01:17.253Z,0.50
2022-09-15T15:03:52.619Z,0.88
2022-09-15T15:06:28.838Z,0.50
2022-09-15T15:09:01.829Z,0.57
2022-09-15T15:11:32.515Z,0.82
2022-09-15T15:14:08.592Z,0.60
2022-09-15T15:16:39.132Z,0.80
2022-09-15T15:19:09.655Z,0.45
2022-09-15T15:21:41.480Z,0.75
2022-09-15T15:24:13.369Z,0.88
2022-09-15T15:26:44.436Z,0.70
2022-09-15T15:29:45.924Z,1.00
2022-09-15T15:32:18.902Z,1.02
2022-09-15T15:34:52.542Z,1.10
2022-09-15T15:37:30.238Z,0.65
2022-09-15T15:40:04.043Z,0.65
2022-09-15T15:42:34.490Z,0.90
2022-09-15T15:45:09.346Z,0.65
2022-09-15T15:47:40.629Z,0.73
2022-09-15T15:50:16.271Z,0.80
2022-09-15T15:52:46.525Z,0.77
2022-09-15T15:55:18.420Z,0.80
2022-09-15T15:57:50.673Z,0.45
2022-09-15T16:00:24.798Z,1.00
2022-09-15T16:02:55.719Z,0.98
2022-09-15T16:05:29.372Z,0.80
2022-09-15T16:08:00.248Z,1.10
2022-09-15T16:10:37.110Z,1.08
2022-09-15T16:13:07.376Z,0.85
2022-09-15T16:15:40.132Z,0.85
2022-09-15T16:18:10.510Z,0.80
2022-09-15T16:20:41.008Z,0.90
2022-09-15T16:23:16.721Z,0.77
2022-09-15T16:25:51.402Z,1.00
2022-09-15T16:28:21.692Z,1.02
2022-09-15T16:30:54.452Z,0.82
2022-09-15T16:33:25.057Z,0.80
2022-09-15T16:36:04.009Z,1.50
2022-09-15T16:38:34.212Z,1.15
2022-09-15T16:41:04.667Z,0.90
2022-09-15T16:43:34.975Z,1.20
2022-09-15T16:46:08.959Z,1.60
2022-09-15T16:54:01.360Z,0.93
2022-09-15T16:56:31.849Z,1.30
2022-09-15T16:59:02.187Z,0.85
2022-09-15T17:01:35.066Z,1.15
2022-09-15T17:04:06.216Z,1.23
2022-09-15T17:06:36.406Z,0.75
2022-09-15T17:09:06.926Z,1.20
2022-09-15T17:11:37.195Z,1.27
2022-09-15T17:14:07.699Z,1.20
2022-09-15T17:16:40.539Z,1.15
2022-09-15T17:19:11.849Z,1.10
2022-09-15T17:21:42.072Z,1.10
2022-09-15T17:24:12.304Z,1.25
2022-09-15T17:26:42.518Z,1.38
2022-09-15T17:29:13.508Z,1.30
2022-09-15T17:31:46.305Z,2.92
2022-09-15T17:34:16.907Z,2.50
2022-09-15T17:36:47.112Z,3.35
2022-09-15T17:39:18.399Z,2.95
2022-09-15T17:41:48.591Z,1.38
2022-09-15T17:44:18.775Z,1.90
2022-09-15T17:46:51.305Z,1.10
2022-09-15T17:49:21.564Z,1.52
2022-09-15T17:51:51.738Z,1.17
2022-09-15T17:54:21.942Z,1.05
2022-09-15T17:56:52.246Z,1.20
2022-09-15T17:59:22.493Z,1.25
2022-09-15T18:01:55.564Z,1.15
2022-09-15T18:04:25.842Z,1.23
2022-09-15T18:06:56.160Z,1.52
2022-09-15T18:09:26.344Z,1.20
2022-09-15T18:11:56.556Z,1.60
2022-09-15T18:14:26.820Z,1.65
2022-09-15T18:16:59.731Z,1.20
2022-09-15T18:19:30.960Z,1.63
2022-09-15T18:22:01.143Z,1.63
2022-09-15T18:24:31.311Z,1.50
2022-09-15T18:27:02.678Z,1.58
2022-09-15T18:29:33.549Z,1.60
2022-09-15T18:32:06.714Z,1.20
2022-09-15T18:34:37.017Z,1.98
2022-09-15T18:37:07.271Z,1.50
2022-09-15T18:39:37.472Z,1.30
2022-09-15T18:42:08.176Z,1.55
2022-09-15T18:44:38.381Z,1.60
2022-09-15T18:47:10.933Z,1.27
2022-09-15T18:49:41.130Z,1.30
2022-09-15T18:52:11.375Z,1.25
2022-09-15T18:54:41.624Z,1.77
2022-09-15T18:57:12.487Z,2.17
2022-09-15T18:59:42.830Z,2.10
2022-09-15T19:02:15.760Z,1.90
2022-09-15T19:04:46.240Z,1.67
2022-09-15T19:07:16.535Z,2.17
2022-09-15T19:09:56.347Z,1.80
2022-09-15T19:12:26.866Z,2.88
2022-09-15T19:14:57.055Z,2.15
2022-09-15T19:17:29.883Z,2.40
2022-09-15T19:20:00.363Z,1.73
2022-09-15T19:22:30.595Z,1.95
2022-09-15T19:25:00.750Z,2.08
2022-09-15T19:27:30.978Z,1.95
2022-09-15T19:30:01.213Z,2.58
2022-09-15T19:32:35.592Z,2.97
2022-09-15T19:35:05.815Z,3.30
2022-09-15T19:37:39.076Z,2.75
2022-09-15T19:40:12.053Z,3.63
2022-09-15T19:42:44.089Z,3.13
2022-09-15T19:45:15.331Z,3.70
2022-09-15T19:47:48.209Z,2.83
2022-09-15T19:50:18.384Z,3.60
2022-09-15T19:52:48.555Z,3.53
2022-09-15T19:55:19.010Z,3.42
2022-09-15T19:57:49.203Z,3.83
2022-09-15T20:00:19.455Z,3.60
2022-09-15T20:02:53.149Z,4.30
2022-09-15T20:05:23.325Z,3.00
2022-09-15T20:07:53.491Z,3.15
2022-09-15T20:10:23.698Z,3.53
2022-09-15T20:12:53.895Z,3.20
2022-09-15T20:15:24.168Z,3.28
2022-09-15T20:17:56.968Z,3.30
2022-09-15T20:20:27.188Z,2.70
2022-09-15T20:22:57.371Z,2.80
2022-09-15T20:25:27.678Z,3.38
2022-09-15T20:27:57.914Z,3.05
2022-09-15T20:30:28.150Z,2.85
2022-09-15T20:33:01.022Z,3.22
2022-09-15T20:35:31.209Z,3.78
2022-09-15T20:38:08.324Z,3.33
2022-09-15T20:40:38.500Z,3.90
2022-09-15T20:43:08.678Z,3.67
2022-09-15T20:45:38.895Z,4.00
2022-09-15T20:48:11.429Z,3.35
2022-09-15T20:50:41.600Z,3.85
2022-09-15T20:53:11.759Z,3.53
2022-09-15T20:55:42.284Z,3.65
2022-09-15T20:58:12.485Z,3.78
2022-09-15T21:00:42.733Z,3.53
2022-09-15T21:03:15.532Z,3.65
2022-09-15T21:05:45.776Z,3.80
2022-09-15T21:08:15.976Z,3.35
2022-09-15T21:10:49.425Z,3.67
2022-09-15T21:13:19.747Z,3.80
2022-09-15T21:15:57.848Z,3.42
2022-09-15T21:18:32.664Z,3.65
2022-09-15T21:21:05.048Z,3.78
2022-09-15T21:23:37.038Z,3.58
2022-09-15T21:26:09.150Z,3.95
2022-09-15T21:28:39.451Z,3.80
2022-09-15T21:31:10.596Z,3.35
2022-09-15T21:33:43.418Z,3.97
2022-09-15T21:36:17.423Z,4.10
2022-09-15T21:38:48.106Z,4.22
2022-09-15T21:41:20.864Z,3.92
2022-09-15T21:43:53.192Z,3.42
2022-09-15T21:46:23.988Z,4.28
2022-09-15T21:48:56.769Z,4.10
2022-09-15T21:51:27.564Z,4.30
2022-09-15T21:53:58.471Z,3.60
2022-09-15T21:56:30.121Z,4.95
2022-09-15T21:59:00.477Z,3.78
2022-09-15T22:01:31.935Z,4.35
2022-09-15T22:04:07.135Z,3.70
2022-09-15T22:06:40.306Z,4.38
2022-09-15T22:09:12.529Z,4.30
2022-09-15T22:11:42.993Z,3.72
2022-09-15T22:14:14.345Z,3.88
2022-09-15T22:16:45.200Z,4.18
2022-09-15T22:19:18.075Z,4.18
2022-09-15T22:21:48.249Z,4.30
2022-09-15T22:24:19.482Z,3.60
2022-09-15T22:26:49.704Z,4.22
2022-09-15T22:29:19.915Z,4.03
2022-09-15T22:31:50.169Z,3.53
2022-09-15T22:34:23.093Z,4.00
2022-09-15T22:36:53.328Z,4.38
2022-09-15T22:39:38.526Z,4.13
2022-09-15T22:42:14.092Z,3.63
2022-09-15T22:44:44.425Z,4.03
2022-09-15T22:47:14.611Z,4.45
2022-09-15T22:49:47.424Z,4.28
2022-09-15T22:52:17.598Z,4.40
2022-09-15T22:54:47.754Z,4.00
2022-09-15T22:57:17.947Z,4.05
2022-09-15T22:59:48.312Z,4.28
2022-09-15T23:02:18.620Z,4.10
2022-09-15T23:04:51.557Z,4.20
2022-09-15T23:07:21.730Z,5.30
2022-09-15T23:09:52.055Z,4.40
2022-09-15T23:12:22.346Z,4.95
2022-09-15T23:14:52.567Z,5.00
2022-09-15T23:17:22.883Z,4.45
2022-09-15T23:19:55.665Z,5.10
2022-09-15T23:22:25.825Z,4.82
2022-09-15T23:24:56.768Z,4.28
2022-09-15T23:27:27.336Z,5.05
2022-09-15T23:29:57.490Z,4.93
2022-09-15T23:32:27.673Z,4.55
2022-09-15T23:35:00.585Z,4.75
2022-09-15T23:37:30.801Z,5.40
2022-09-15T23:40:01.086Z,5.60
2022-09-15T23:42:31.359Z,4.53
2022-09-15T23:45:01.538Z,5.28
2022-09-15T23:47:31.820Z,4.60
2022-09-15T23:50:04.660Z,5.10
2022-09-15T23:52:34.875Z,4.97
2022-09-15T23:55:05.142Z,5.47
2022-09-15T23:57:35.397Z,5.95
